createdAt,value
2018-04-17T00:00:14.638Z,15.57
2018-04-17T00:00:40.809Z,15.49
2018-04-17T00:01:06.944Z,15.51
2018-04-17T00:01:33.085Z,15.52
2018-04-17T00:01:59.229Z,15.44
2018-04-17T00:02:25.391Z,15.4
2018-04-17T00:02:51.531Z,15.54
2018-04-17T00:03:17.675Z,15.4
2018-04-17T00:03:43.820Z,15.46
2018-04-17T00:04:09.954Z,15.42
2018-04-17T00:04:36.093Z,15.43
2018-04-17T00:05:02.228Z,15.44
2018-04-17T00:05:28.416Z,15.47
2018-04-17T00:05:54.554Z,15.42
2018-04-17T00:06:20.700Z,15.39
2018-04-17T00:06:46.865Z,15.42
2018-04-17T00:07:13.022Z,15.51
2018-04-17T00:07:39.177Z,15.44
2018-04-17T00:08:05.337Z,15.37
2018-04-17T00:08:31.481Z,15.36
2018-04-17T00:08:57.612Z,15.46
2018-04-17T00:09:23.747Z,15.39
2018-04-17T00:09:49.890Z,15.31
2018-04-17T00:10:16.050Z,15.44
2018-04-17T00:10:42.191Z,15.39
2018-04-17T00:11:08.953Z,15.4
2018-04-17T00:11:35.093Z,15.42
2018-04-17T00:12:01.231Z,15.36
2018-04-17T00:12:27.391Z,15.28
2018-04-17T00:12:53.537Z,15.29
2018-04-17T00:13:19.675Z,15.36
2018-04-17T00:13:45.810Z,15.24
2018-04-17T00:14:11.951Z,15.39
2018-04-17T00:14:38.089Z,15.28
2018-04-17T00:15:04.232Z,15.37
2018-04-17T00:15:30.378Z,15.42
2018-04-17T00:15:56.516Z,15.33
2018-04-17T00:16:22.654Z,15.31
2018-04-17T00:16:48.792Z,15.28
2018-04-17T00:17:14.938Z,15.36
2018-04-17T00:17:41.103Z,15.29
2018-04-17T00:18:07.261Z,15.29
2018-04-17T00:18:33.427Z,15.28
2018-04-17T00:18:59.567Z,15.28
2018-04-17T00:19:25.698Z,15.27
2018-04-17T00:19:51.869Z,15.29
2018-04-17T00:20:18.029Z,15.35
2018-04-17T00:20:44.171Z,15.33
2018-04-17T00:21:10.312Z,15.35
2018-04-17T00:21:36.450Z,15.35
2018-04-17T00:22:02.584Z,15.28
2018-04-17T00:22:28.735Z,15.31
2018-04-17T00:22:54.880Z,15.28
2018-04-17T00:23:21.008Z,15.28
2018-04-17T00:23:47.152Z,15.28
2018-04-17T00:24:13.291Z,15.35
2018-04-17T00:24:39.431Z,15.29
2018-04-17T00:25:05.571Z,15.35
2018-04-17T00:25:31.708Z,15.25
2018-04-17T00:25:57.873Z,15.28
2018-04-17T00:26:24.027Z,15.24
2018-04-17T00:26:50.162Z,15.28
2018-04-17T00:27:16.295Z,15.27
2018-04-17T00:27:42.440Z,15.25
2018-04-17T00:28:08.584Z,15.25
2018-04-17T00:28:34.746Z,15.28
2018-04-17T00:29:00.880Z,15.28
2018-04-17T00:29:27.027Z,15.28
2018-04-17T00:29:53.156Z,15.21
2018-04-17T00:30:19.331Z,15.28
2018-04-17T00:30:45.465Z,15.24
2018-04-17T00:31:11.605Z,15.29
2018-04-17T00:31:37.741Z,15.29
2018-04-17T00:32:03.905Z,15.27
2018-04-17T00:32:30.043Z,15.31
2018-04-17T00:32:56.175Z,15.28
2018-04-17T00:33:22.309Z,15.29
2018-04-17T00:33:48.456Z,15.24
2018-04-17T00:34:14.588Z,15.25
2018-04-17T00:34:40.765Z,15.22
2018-04-17T00:35:06.908Z,15.25
2018-04-17T00:35:33.048Z,15.29
2018-04-17T00:35:59.188Z,15.29
2018-04-17T00:36:25.329Z,15.22
2018-04-17T00:36:51.467Z,15.19
2018-04-17T00:37:17.603Z,15.17
2018-04-17T00:37:43.777Z,15.28
2018-04-17T00:38:09.959Z,15.22
2018-04-17T00:38:36.100Z,15.22
2018-04-17T00:39:02.238Z,15.25
2018-04-17T00:39:28.376Z,15.19
2018-04-17T00:39:54.516Z,15.09
2018-04-17T00:40:20.656Z,15.21
2018-04-17T00:40:46.795Z,15.1
2018-04-17T00:41:12.956Z,15.11
2018-04-17T00:41:39.096Z,15.14
2018-04-17T00:42:05.240Z,15.17
2018-04-17T00:42:31.377Z,15.15
2018-04-17T00:42:57.515Z,15.19
2018-04-17T00:43:23.657Z,15.27
2018-04-17T00:43:49.791Z,15.19
2018-04-17T00:44:15.939Z,15.24
2018-04-17T00:44:42.068Z,15.21
2018-04-17T00:45:08.290Z,15.15
2018-04-17T00:45:34.417Z,15.18
2018-04-17T00:46:00.557Z,15.15
2018-04-17T00:46:26.697Z,15.11
2018-04-17T00:46:52.864Z,15.14
2018-04-17T00:47:19.001Z,15.18
2018-04-17T00:47:45.165Z,15.21
2018-04-17T00:48:11.322Z,15.11
2018-04-17T00:48:37.466Z,15.15
2018-04-17T00:49:03.609Z,15.17
2018-04-17T00:49:29.748Z,15.14
2018-04-17T00:49:55.917Z,15.19
2018-04-17T00:50:22.044Z,15.15
2018-04-17T00:50:48.186Z,15.11
2018-04-17T00:51:14.322Z,15.1
2018-04-17T00:51:40.466Z,15.07
2018-04-17T00:52:06.605Z,15.21
2018-04-17T00:52:32.744Z,15.1
2018-04-17T00:52:58.881Z,15.15
2018-04-17T00:53:25.024Z,15.1
2018-04-17T00:53:51.161Z,15.15
2018-04-17T00:54:17.304Z,15.11
2018-04-17T00:54:43.444Z,15.09
2018-04-17T00:55:09.586Z,15.07
2018-04-17T00:55:35.724Z,15.14
2018-04-17T00:56:01.875Z,15.04
2018-04-17T00:56:28.025Z,15.09
2018-04-17T00:56:54.168Z,15.11
2018-04-17T00:57:20.302Z,15.07
2018-04-17T00:57:46.446Z,15.04
2018-04-17T00:58:12.578Z,15.07
2018-04-17T00:58:38.745Z,15.11
2018-04-17T00:59:04.913Z,15.09
2018-04-17T00:59:31.054Z,15.21
2018-04-17T00:59:57.191Z,15.06
2018-04-17T01:00:23.330Z,15.14
2018-04-17T01:00:49.490Z,15.09
2018-04-17T01:01:15.631Z,15.15
2018-04-17T01:01:41.798Z,15.11
2018-04-17T01:02:07.930Z,14.99
2018-04-17T01:02:34.070Z,15.06
2018-04-17T01:03:00.274Z,15.07
2018-04-17T01:03:26.452Z,15.02
2018-04-17T01:03:52.588Z,15.04
2018-04-17T01:04:18.721Z,15.07
2018-04-17T01:04:44.857Z,15.04
2018-04-17T01:05:11.048Z,15.02
2018-04-17T01:05:37.189Z,14.96
2018-04-17T01:06:03.352Z,15.02
2018-04-17T01:06:29.517Z,14.99
2018-04-17T01:06:55.648Z,14.96
2018-04-17T01:07:21.790Z,15
2018-04-17T01:07:47.927Z,14.99
2018-04-17T01:08:14.062Z,14.94
2018-04-17T01:08:40.200Z,14.96
2018-04-17T01:09:06.340Z,14.96
2018-04-17T01:09:32.499Z,14.94
2018-04-17T01:09:58.638Z,15
2018-04-17T01:10:24.776Z,14.97
2018-04-17T01:10:50.912Z,14.94
2018-04-17T01:11:17.121Z,14.97
2018-04-17T01:11:43.215Z,14.96
2018-04-17T01:12:09.377Z,14.92
2018-04-17T01:12:35.512Z,14.84
2018-04-17T01:13:01.669Z,14.97
2018-04-17T01:13:27.812Z,14.96
2018-04-17T01:13:53.949Z,14.88
2018-04-17T01:14:20.115Z,14.85
2018-04-17T01:14:46.259Z,14.89
2018-04-17T01:15:12.391Z,14.86
2018-04-17T01:15:38.529Z,14.94
2018-04-17T01:16:04.736Z,14.92
2018-04-17T01:16:30.881Z,14.91
2018-04-17T01:16:57.016Z,14.88
2018-04-17T01:17:23.180Z,14.88
2018-04-17T01:17:49.314Z,14.86
2018-04-17T01:18:15.481Z,14.82
2018-04-17T01:18:41.642Z,14.89
2018-04-17T01:19:07.779Z,14.82
2018-04-17T01:19:33.943Z,14.85
2018-04-17T01:20:00.105Z,14.81
2018-04-17T01:20:26.234Z,14.88
2018-04-17T01:20:52.377Z,14.81
2018-04-17T01:21:18.519Z,14.85
2018-04-17T01:21:44.681Z,14.82
2018-04-17T01:22:10.810Z,14.82
2018-04-17T01:22:36.952Z,14.85
2018-04-17T01:23:03.139Z,14.81
2018-04-17T01:23:29.278Z,14.79
2018-04-17T01:23:55.436Z,14.86
2018-04-17T01:24:21.575Z,14.84
2018-04-17T01:24:47.735Z,14.84
2018-04-17T01:25:13.874Z,14.81
2018-04-17T01:25:40.089Z,14.82
2018-04-17T01:26:06.227Z,14.88
2018-04-17T01:26:32.393Z,14.81
2018-04-17T01:26:58.531Z,14.85
2018-04-17T01:27:24.670Z,14.82
2018-04-17T01:27:50.820Z,14.88
2018-04-17T01:28:16.960Z,14.89
2018-04-17T01:28:43.121Z,14.82
2018-04-17T01:29:09.288Z,14.84
2018-04-17T01:29:35.449Z,14.84
2018-04-17T01:30:01.599Z,14.79
2018-04-17T01:30:27.748Z,14.82
2018-04-17T01:30:53.891Z,14.84
2018-04-17T01:31:20.029Z,14.73
2018-04-17T01:31:46.161Z,14.85
2018-04-17T01:32:12.334Z,14.77
2018-04-17T01:32:38.477Z,14.78
2018-04-17T01:33:04.613Z,14.79
2018-04-17T01:33:30.753Z,14.84
2018-04-17T01:33:56.889Z,14.7
2018-04-17T01:34:23.031Z,14.77
2018-04-17T01:34:49.212Z,14.7
2018-04-17T01:35:15.360Z,14.79
2018-04-17T01:35:41.496Z,14.73
2018-04-17T01:36:07.628Z,14.7
2018-04-17T01:36:33.764Z,14.72
2018-04-17T01:36:59.906Z,14.73
2018-04-17T01:37:26.093Z,14.73
2018-04-17T01:37:52.227Z,14.72
2018-04-17T01:38:18.393Z,14.77
2018-04-17T01:38:44.535Z,14.78
2018-04-17T01:39:10.696Z,14.73
2018-04-17T01:39:36.832Z,14.73
2018-04-17T01:40:02.974Z,14.7
2018-04-17T01:40:29.137Z,14.72
2018-04-17T01:40:55.272Z,14.73
2018-04-17T01:41:21.403Z,14.73
2018-04-17T01:41:47.547Z,14.72
2018-04-17T01:42:13.713Z,14.73
2018-04-17T01:42:39.854Z,14.65
2018-04-17T01:43:05.992Z,14.68
2018-04-17T01:43:32.159Z,14.7
2018-04-17T01:43:58.294Z,14.66
2018-04-17T01:44:24.434Z,14.69
2018-04-17T01:44:50.576Z,14.69
2018-04-17T01:45:16.713Z,14.66
2018-04-17T01:45:42.849Z,14.7
2018-04-17T01:46:08.991Z,14.66
2018-04-17T01:46:35.154Z,14.65
2018-04-17T01:47:01.317Z,14.65
2018-04-17T01:47:27.463Z,14.63
2018-04-17T01:47:53.603Z,14.63
2018-04-17T01:48:19.743Z,14.66
2018-04-17T01:48:45.876Z,14.68
2018-04-17T01:49:12.014Z,14.62
2018-04-17T01:49:38.154Z,14.65
2018-04-17T01:50:04.296Z,14.59
2018-04-17T01:50:30.441Z,14.66
2018-04-17T01:50:56.604Z,14.55
2018-04-17T01:51:22.761Z,14.68
2018-04-17T01:51:48.904Z,14.6
2018-04-17T01:52:15.042Z,14.65
2018-04-17T01:52:41.206Z,14.62
2018-04-17T01:53:07.372Z,14.62
2018-04-17T01:53:33.511Z,14.62
2018-04-17T01:53:59.648Z,14.68
2018-04-17T01:54:25.784Z,14.62
2018-04-17T01:54:51.934Z,14.66
2018-04-17T01:55:18.074Z,14.55
2018-04-17T01:55:44.235Z,14.65
2018-04-17T01:56:10.372Z,14.65
2018-04-17T01:56:36.511Z,14.65
2018-04-17T01:57:02.676Z,14.63
2018-04-17T01:57:28.836Z,14.58
2018-04-17T01:57:54.973Z,14.63
2018-04-17T01:58:21.113Z,14.6
2018-04-17T01:58:47.250Z,14.62
2018-04-17T01:59:13.418Z,14.68
2018-04-17T01:59:39.559Z,14.65
2018-04-17T02:00:05.700Z,14.58
2018-04-17T02:00:31.831Z,14.54
2018-04-17T02:00:58.026Z,14.54
2018-04-17T02:01:24.164Z,14.55
2018-04-17T02:01:50.309Z,14.58
2018-04-17T02:02:16.445Z,14.59
2018-04-17T02:02:42.581Z,14.59
2018-04-17T02:03:08.723Z,14.58
2018-04-17T02:03:34.862Z,14.62
2018-04-17T02:04:00.995Z,14.58
2018-04-17T02:04:27.140Z,14.54
2018-04-17T02:04:53.302Z,14.55
2018-04-17T02:05:19.445Z,14.55
2018-04-17T02:05:45.611Z,14.51
2018-04-17T02:06:11.763Z,14.53
2018-04-17T02:06:37.908Z,14.53
2018-04-17T02:07:04.065Z,14.55
2018-04-17T02:07:30.209Z,14.47
2018-04-17T02:07:56.346Z,14.51
2018-04-17T02:08:22.509Z,14.5
2018-04-17T02:08:48.651Z,14.53
2018-04-17T02:09:14.790Z,14.59
2018-04-17T02:09:40.947Z,14.53
2018-04-17T02:10:07.082Z,14.54
2018-04-17T02:10:33.232Z,14.45
2018-04-17T02:10:59.390Z,14.51
2018-04-17T02:11:25.518Z,14.53
2018-04-17T02:11:51.665Z,14.55
2018-04-17T02:12:17.806Z,14.51
2018-04-17T02:12:43.943Z,14.51
2018-04-17T02:13:10.085Z,14.54
2018-04-17T02:13:36.226Z,14.5
2018-04-17T02:14:02.363Z,14.51
2018-04-17T02:14:28.498Z,14.51
2018-04-17T02:14:54.641Z,14.53
2018-04-17T02:15:20.773Z,14.55
2018-04-17T02:15:46.915Z,14.51
2018-04-17T02:16:13.048Z,14.55
2018-04-17T02:16:39.228Z,14.53
2018-04-17T02:17:05.357Z,14.55
2018-04-17T02:17:31.497Z,14.51
2018-04-17T02:17:57.637Z,14.51
2018-04-17T02:18:23.777Z,14.5
2018-04-17T02:18:49.916Z,14.47
2018-04-17T02:19:16.057Z,14.48
2018-04-17T02:19:42.225Z,14.58
2018-04-17T02:20:08.364Z,14.48
2018-04-17T02:20:34.505Z,14.5
2018-04-17T02:21:00.641Z,14.54
2018-04-17T02:21:26.800Z,14.5
2018-04-17T02:21:52.942Z,14.45
2018-04-17T02:22:19.089Z,14.47
2018-04-17T02:22:45.222Z,14.5
2018-04-17T02:23:11.383Z,14.44
2018-04-17T02:23:37.545Z,14.45
2018-04-17T02:24:03.690Z,14.5
2018-04-17T02:24:29.854Z,14.48
2018-04-17T02:24:55.992Z,14.47
2018-04-17T02:25:22.157Z,14.55
2018-04-17T02:25:48.287Z,14.48
2018-04-17T02:26:14.430Z,14.44
2018-04-17T02:26:40.567Z,14.45
2018-04-17T02:27:06.702Z,14.44
2018-04-17T02:27:32.845Z,14.54
2018-04-17T02:27:58.982Z,14.47
2018-04-17T02:28:25.120Z,14.48
2018-04-17T02:28:51.256Z,14.45
2018-04-17T02:29:17.418Z,14.51
2018-04-17T02:29:43.538Z,14.5
2018-04-17T02:30:09.679Z,14.5
2018-04-17T02:30:35.821Z,14.48
2018-04-17T02:31:01.980Z,14.5
2018-04-17T02:31:28.117Z,14.55
2018-04-17T02:31:54.257Z,14.51
2018-04-17T02:32:20.401Z,14.48
2018-04-17T02:32:46.539Z,14.5
2018-04-17T02:33:12.675Z,14.5
2018-04-17T02:33:38.817Z,14.48
2018-04-17T02:34:04.968Z,14.5
2018-04-17T02:34:31.150Z,14.45
2018-04-17T02:34:57.295Z,14.44
2018-04-17T02:35:23.462Z,14.41
2018-04-17T02:35:49.645Z,14.41
2018-04-17T02:36:15.834Z,14.43
2018-04-17T02:36:41.968Z,14.48
2018-04-17T02:37:08.113Z,14.44
2018-04-17T02:37:34.245Z,14.53
2018-04-17T02:38:00.402Z,14.48
2018-04-17T02:38:26.562Z,14.55
2018-04-17T02:38:52.700Z,14.48
2018-04-17T02:39:18.839Z,14.48
2018-04-17T02:39:45.015Z,14.43
2018-04-17T02:40:11.188Z,14.5
2018-04-17T02:40:37.334Z,14.45
2018-04-17T02:41:03.490Z,14.5
2018-04-17T02:41:29.634Z,14.48
2018-04-17T02:41:55.774Z,14.48
2018-04-17T02:42:21.907Z,14.44
2018-04-17T02:42:48.103Z,14.47
2018-04-17T02:43:14.272Z,14.41
2018-04-17T02:43:40.423Z,14.43
2018-04-17T02:44:06.610Z,14.43
2018-04-17T02:44:32.777Z,14.41
2018-04-17T02:44:58.963Z,14.4
2018-04-17T02:45:25.105Z,14.37
2018-04-17T02:45:51.254Z,14.37
2018-04-17T02:46:17.434Z,14.32
2018-04-17T02:46:43.583Z,14.28
2018-04-17T02:47:09.775Z,14.36
2018-04-17T02:47:36.032Z,14.36
2018-04-17T02:48:02.129Z,14.35
2018-04-17T02:48:28.269Z,14.32
2018-04-17T02:48:54.456Z,14.37
2018-04-17T02:49:20.634Z,14.29
2018-04-17T02:49:46.824Z,14.37
2018-04-17T02:50:13.020Z,14.33
2018-04-17T02:50:39.160Z,14.3
2018-04-17T02:51:05.338Z,14.4
2018-04-17T02:51:31.525Z,14.37
2018-04-17T02:51:57.665Z,14.37
2018-04-17T02:52:23.878Z,14.36
2018-04-17T02:52:50.053Z,14.36
2018-04-17T02:53:16.185Z,14.37
2018-04-17T02:53:42.339Z,14.32
2018-04-17T02:54:08.494Z,14.4
2018-04-17T02:54:34.682Z,14.29
2018-04-17T02:55:00.863Z,14.37
2018-04-17T02:55:27.030Z,14.32
2018-04-17T02:55:53.196Z,14.32
2018-04-17T02:56:19.345Z,14.37
2018-04-17T02:56:45.484Z,14.36
2018-04-17T02:57:11.644Z,14.36
2018-04-17T02:57:37.799Z,14.36
2018-04-17T02:58:03.939Z,14.29
2018-04-17T02:58:30.083Z,14.37
2018-04-17T02:58:56.212Z,14.33
2018-04-17T02:59:22.351Z,14.29
2018-04-17T02:59:48.543Z,14.32
2018-04-17T03:00:14.675Z,14.29
2018-04-17T03:00:40.793Z,14.3
2018-04-17T03:01:06.950Z,14.26
2018-04-17T03:01:33.076Z,14.32
2018-04-17T03:01:59.240Z,14.32
2018-04-17T03:02:25.410Z,14.29
2018-04-17T03:02:51.577Z,14.33
2018-04-17T03:03:17.720Z,14.28
2018-04-17T03:03:43.860Z,14.32
2018-04-17T03:04:10.025Z,14.2
2018-04-17T03:04:36.164Z,14.26
2018-04-17T03:05:02.303Z,14.26
2018-04-17T03:05:28.485Z,14.28
2018-04-17T03:05:54.624Z,14.28
2018-04-17T03:06:20.756Z,14.23
2018-04-17T03:06:46.912Z,14.23
2018-04-17T03:07:13.051Z,14.23
2018-04-17T03:07:39.241Z,14.29
2018-04-17T03:08:05.385Z,14.32
2018-04-17T03:08:31.552Z,14.25
2018-04-17T03:08:57.791Z,14.28
2018-04-17T03:09:23.937Z,14.26
2018-04-17T03:09:50.144Z,14.33
2018-04-17T03:10:16.282Z,14.32
2018-04-17T03:10:42.442Z,14.2
2018-04-17T03:11:08.624Z,14.28
2018-04-17T03:11:34.760Z,14.2
2018-04-17T03:12:00.907Z,14.23
2018-04-17T03:12:27.031Z,14.26
2018-04-17T03:12:53.199Z,14.33
2018-04-17T03:13:19.334Z,14.32
2018-04-17T03:13:45.465Z,14.28
2018-04-17T03:14:11.601Z,14.2
2018-04-17T03:14:37.747Z,14.26
2018-04-17T03:15:03.874Z,14.29
2018-04-17T03:15:30.017Z,14.26
2018-04-17T03:15:56.151Z,14.3
2018-04-17T03:16:22.316Z,14.33
2018-04-17T03:16:48.454Z,14.29
2018-04-17T03:17:14.593Z,14.32
2018-04-17T03:17:40.734Z,14.26
2018-04-17T03:18:06.882Z,14.3
2018-04-17T03:18:33.026Z,14.2
2018-04-17T03:18:59.162Z,14.26
2018-04-17T03:19:25.301Z,14.25
2018-04-17T03:19:51.431Z,14.26
2018-04-17T03:20:17.572Z,14.2
2018-04-17T03:20:43.714Z,14.3
2018-04-17T03:21:09.848Z,14.22
2018-04-17T03:21:35.989Z,14.32
2018-04-17T03:22:02.126Z,14.33
2018-04-17T03:22:28.270Z,14.33
2018-04-17T03:22:54.410Z,14.32
2018-04-17T03:23:20.542Z,14.25
2018-04-17T03:23:46.731Z,14.26
2018-04-17T03:24:12.868Z,14.32
2018-04-17T03:24:39.011Z,14.17
2018-04-17T03:25:05.151Z,14.22
2018-04-17T03:25:31.286Z,14.22
2018-04-17T03:25:57.467Z,14.25
2018-04-17T03:26:23.564Z,14.22
2018-04-17T03:26:49.710Z,14.26
2018-04-17T03:27:15.845Z,14.32
2018-04-17T03:27:41.982Z,14.29
2018-04-17T03:28:08.145Z,14.23
2018-04-17T03:28:34.285Z,14.28
2018-04-17T03:29:00.441Z,14.3
2018-04-17T03:29:26.584Z,14.2
2018-04-17T03:29:52.744Z,14.23
2018-04-17T03:30:18.934Z,14.18
2018-04-17T03:30:45.102Z,14.3
2018-04-17T03:31:11.258Z,14.23
2018-04-17T03:31:37.424Z,14.32
2018-04-17T03:32:03.578Z,14.29
2018-04-17T03:32:29.714Z,14.23
2018-04-17T03:32:55.878Z,14.33
2018-04-17T03:33:22.009Z,14.26
2018-04-17T03:33:48.148Z,14.3
2018-04-17T03:34:14.286Z,14.32
2018-04-17T03:34:40.424Z,14.2
2018-04-17T03:35:06.589Z,14.23
2018-04-17T03:35:32.723Z,14.22
2018-04-17T03:35:58.891Z,14.23
2018-04-17T03:36:25.025Z,14.26
2018-04-17T03:36:51.164Z,14.23
2018-04-17T03:37:17.332Z,14.26
2018-04-17T03:37:43.473Z,14.17
2018-04-17T03:38:09.610Z,14.2
2018-04-17T03:38:35.748Z,14.29
2018-04-17T03:39:01.892Z,14.25
2018-04-17T03:39:28.048Z,14.26
2018-04-17T03:39:54.191Z,14.25
2018-04-17T03:40:20.321Z,14.17
2018-04-17T03:40:46.487Z,14.22
2018-04-17T03:41:12.625Z,14.17
2018-04-17T03:41:38.760Z,14.2
2018-04-17T03:42:04.907Z,14.22
2018-04-17T03:42:31.042Z,14.2
2018-04-17T03:42:57.199Z,14.2
2018-04-17T03:43:23.338Z,14.11
2018-04-17T03:43:49.506Z,14.22
2018-04-17T03:44:15.669Z,14.22
2018-04-17T03:44:41.809Z,14.11
2018-04-17T03:45:07.971Z,14.14
2018-04-17T03:45:34.109Z,14.12
2018-04-17T03:46:00.244Z,14.05
2018-04-17T03:46:26.388Z,14.03
2018-04-17T03:46:52.527Z,13.97
2018-04-17T03:47:18.664Z,13.97
2018-04-17T03:47:44.806Z,14.04
2018-04-17T03:48:10.971Z,14
2018-04-17T03:48:37.117Z,13.99
2018-04-17T03:49:03.263Z,14
2018-04-17T03:49:29.395Z,13.96
2018-04-17T03:49:55.560Z,13.96
2018-04-17T03:50:21.728Z,13.97
2018-04-17T03:50:47.865Z,14
2018-04-17T03:51:14.001Z,13.86
2018-04-17T03:51:40.162Z,13.92
2018-04-17T03:52:06.300Z,13.93
2018-04-17T03:52:32.487Z,13.86
2018-04-17T03:52:58.651Z,13.78
2018-04-17T03:53:24.795Z,13.75
2018-04-17T03:53:50.935Z,13.77
2018-04-17T03:54:17.075Z,13.75
2018-04-17T03:54:43.208Z,13.77
2018-04-17T03:55:09.349Z,13.7
2018-04-17T03:55:35.509Z,13.65
2018-04-17T03:56:01.650Z,13.59
2018-04-17T03:56:27.814Z,13.49
2018-04-17T03:56:53.952Z,13.5
2018-04-17T03:57:20.088Z,13.57
2018-04-17T03:57:46.257Z,13.53
2018-04-17T03:58:12.394Z,13.44
2018-04-17T03:58:38.532Z,13.44
2018-04-17T03:59:04.725Z,13.41
2018-04-17T03:59:30.882Z,13.47
2018-04-17T03:59:57.022Z,13.53
2018-04-17T04:00:23.163Z,13.46
2018-04-17T04:00:49.309Z,13.41
2018-04-17T04:01:15.462Z,13.41
2018-04-17T04:01:41.600Z,13.41
2018-04-17T04:02:07.739Z,13.42
2018-04-17T04:02:33.883Z,13.44
2018-04-17T04:03:00.021Z,13.37
2018-04-17T04:03:26.187Z,13.44
2018-04-17T04:03:52.325Z,13.38
2018-04-17T04:04:18.492Z,13.35
2018-04-17T04:04:44.633Z,13.38
2018-04-17T04:05:10.772Z,13.41
2018-04-17T04:05:36.909Z,13.41
2018-04-17T04:06:03.053Z,13.3
2018-04-17T04:06:29.188Z,13.3
2018-04-17T04:06:55.327Z,13.33
2018-04-17T04:07:21.469Z,13.37
2018-04-17T04:07:47.600Z,13.28
2018-04-17T04:08:13.768Z,13.31
2018-04-17T04:08:39.934Z,13.27
2018-04-17T04:09:06.099Z,13.27
2018-04-17T04:09:32.257Z,13.28
2018-04-17T04:09:58.422Z,13.25
2018-04-17T04:10:24.563Z,13.3
2018-04-17T04:10:50.704Z,13.25
2018-04-17T04:11:16.845Z,13.27
2018-04-17T04:11:42.987Z,13.27
2018-04-17T04:12:09.146Z,13.27
2018-04-17T04:12:35.282Z,13.27
2018-04-17T04:13:01.420Z,13.22
2018-04-17T04:13:27.559Z,13.31
2018-04-17T04:13:53.700Z,13.25
2018-04-17T04:14:19.837Z,13.3
2018-04-17T04:14:46.009Z,13.27
2018-04-17T04:15:12.176Z,13.31
2018-04-17T04:15:38.331Z,13.38
2018-04-17T04:16:04.469Z,13.35
2018-04-17T04:16:30.610Z,13.39
2018-04-17T04:16:56.740Z,13.39
2018-04-17T04:17:22.946Z,13.37
2018-04-17T04:17:49.084Z,13.41
2018-04-17T04:18:15.223Z,13.42
2018-04-17T04:18:41.364Z,13.33
2018-04-17T04:19:07.502Z,13.35
2018-04-17T04:19:33.644Z,13.42
2018-04-17T04:19:59.832Z,13.35
2018-04-17T04:20:25.970Z,13.39
2018-04-17T04:20:52.108Z,13.39
2018-04-17T04:21:18.244Z,13.37
2018-04-17T04:21:44.391Z,13.37
2018-04-17T04:22:10.527Z,13.38
2018-04-17T04:22:36.666Z,13.46
2018-04-17T04:23:02.830Z,13.42
2018-04-17T04:23:28.970Z,13.56
2018-04-17T04:23:55.106Z,13.47
2018-04-17T04:24:21.251Z,13.44
2018-04-17T04:24:47.387Z,13.53
2018-04-17T04:25:13.550Z,13.5
2018-04-17T04:25:39.689Z,13.44
2018-04-17T04:26:05.823Z,13.49
2018-04-17T04:26:31.964Z,13.52
2018-04-17T04:26:58.111Z,13.38
2018-04-17T04:27:24.246Z,13.49
2018-04-17T04:27:50.400Z,13.5
2018-04-17T04:28:16.571Z,13.47
2018-04-17T04:28:42.714Z,13.47
2018-04-17T04:29:08.854Z,13.47
2018-04-17T04:29:35.009Z,13.47
2018-04-17T04:30:01.147Z,13.53
2018-04-17T04:30:27.303Z,13.5
2018-04-17T04:30:53.447Z,13.5
2018-04-17T04:31:19.585Z,13.53
2018-04-17T04:31:45.752Z,13.52
2018-04-17T04:32:11.894Z,13.5
2018-04-17T04:32:38.061Z,13.42
2018-04-17T04:33:04.195Z,13.49
2018-04-17T04:33:30.334Z,13.38
2018-04-17T04:33:56.479Z,13.44
2018-04-17T04:34:22.621Z,13.38
2018-04-17T04:34:48.763Z,13.44
2018-04-17T04:35:14.916Z,13.46
2018-04-17T04:35:41.060Z,13.44
2018-04-17T04:36:07.226Z,13.33
2018-04-17T04:36:33.391Z,13.39
2018-04-17T04:36:59.529Z,13.39
2018-04-17T04:37:25.664Z,13.39
2018-04-17T04:37:51.801Z,13.41
2018-04-17T04:38:17.938Z,13.38
2018-04-17T04:38:44.104Z,13.39
2018-04-17T04:39:10.244Z,13.41
2018-04-17T04:39:36.382Z,13.41
2018-04-17T04:40:02.519Z,13.42
2018-04-17T04:40:28.658Z,13.41
2018-04-17T04:40:54.795Z,13.33
2018-04-17T04:41:20.968Z,13.38
2018-04-17T04:41:47.113Z,13.31
2018-04-17T04:42:13.275Z,13.3
2018-04-17T04:42:39.411Z,13.27
2018-04-17T04:43:05.558Z,13.25
2018-04-17T04:43:31.723Z,13.23
2018-04-17T04:43:57.863Z,13.27
2018-04-17T04:44:24.006Z,13.33
2018-04-17T04:44:50.141Z,13.27
2018-04-17T04:45:16.286Z,13.31
2018-04-17T04:45:42.422Z,13.25
2018-04-17T04:46:08.604Z,13.23
2018-04-17T04:46:34.743Z,13.28
2018-04-17T04:47:00.879Z,13.3
2018-04-17T04:47:27.044Z,13.28
2018-04-17T04:47:53.187Z,13.22
2018-04-17T04:48:19.342Z,13.3
2018-04-17T04:48:45.493Z,13.3
2018-04-17T04:49:11.626Z,13.3
2018-04-17T04:49:37.767Z,13.3
2018-04-17T04:50:03.899Z,13.19
2018-04-17T04:50:30.039Z,13.28
2018-04-17T04:50:56.208Z,13.22
2018-04-17T04:51:22.343Z,13.19
2018-04-17T04:51:48.483Z,13.2
2018-04-17T04:52:14.624Z,13.2
2018-04-17T04:52:40.790Z,13.22
2018-04-17T04:53:06.921Z,13.12
2018-04-17T04:53:33.066Z,13.2
2018-04-17T04:53:59.231Z,13.15
2018-04-17T04:54:25.431Z,13.12
2018-04-17T04:54:51.522Z,13.13
2018-04-17T04:55:17.665Z,13.09
2018-04-17T04:55:43.807Z,13.09
2018-04-17T04:56:09.963Z,13.09
2018-04-17T04:56:36.109Z,13.08
2018-04-17T04:57:02.246Z,13.11
2018-04-17T04:57:28.414Z,13.12
2018-04-17T04:57:54.550Z,13.11
2018-04-17T04:58:20.691Z,13.08
2018-04-17T04:58:46.827Z,13.16
2018-04-17T04:59:12.971Z,13.09
2018-04-17T04:59:39.100Z,13.08
2018-04-17T05:00:05.255Z,13.12
2018-04-17T05:00:31.397Z,13.15
2018-04-17T05:00:57.567Z,13.13
2018-04-17T05:01:23.707Z,13.11
2018-04-17T05:01:49.873Z,13.04
2018-04-17T05:02:16.010Z,13.08
2018-04-17T05:02:42.191Z,13.15
2018-04-17T05:03:08.347Z,13.19
2018-04-17T05:03:34.516Z,13.13
2018-04-17T05:04:00.673Z,13.18
2018-04-17T05:04:26.810Z,13.2
2018-04-17T05:04:52.989Z,13.18
2018-04-17T05:05:19.117Z,13.18
2018-04-17T05:05:45.272Z,13.18
2018-04-17T05:06:11.410Z,13.15
2018-04-17T05:06:37.578Z,13.18
2018-04-17T05:07:03.715Z,13.16
2018-04-17T05:07:29.853Z,13.16
2018-04-17T05:07:55.988Z,13.15
2018-04-17T05:08:22.130Z,13.16
2018-04-17T05:08:48.275Z,13.19
2018-04-17T05:09:14.416Z,13.18
2018-04-17T05:09:40.555Z,13.13
2018-04-17T05:10:06.694Z,13.18
2018-04-17T05:10:32.828Z,13.16
2018-04-17T05:10:58.990Z,13.09
2018-04-17T05:11:25.151Z,13.11
2018-04-17T05:11:51.316Z,13.11
2018-04-17T05:12:17.476Z,13.12
2018-04-17T05:12:43.613Z,13.18
2018-04-17T05:13:09.754Z,13.15
2018-04-17T05:13:35.915Z,13.15
2018-04-17T05:14:02.052Z,13.28
2018-04-17T05:14:28.197Z,13.31
2018-04-17T05:14:54.355Z,13.23
2018-04-17T05:15:20.489Z,13.27
2018-04-17T05:15:46.624Z,13.2
2018-04-17T05:16:12.764Z,13.25
2018-04-17T05:16:38.904Z,13.25
2018-04-17T05:17:05.069Z,13.18
2018-04-17T05:17:31.236Z,13.25
2018-04-17T05:17:57.370Z,13.27
2018-04-17T05:18:23.553Z,13.23
2018-04-17T05:18:49.709Z,13.25
2018-04-17T05:19:15.873Z,13.3
2018-04-17T05:19:42.016Z,13.25
2018-04-17T05:20:08.152Z,13.27
2018-04-17T05:20:34.287Z,13.31
2018-04-17T05:21:00.429Z,13.27
2018-04-17T05:21:26.566Z,13.28
2018-04-17T05:21:52.704Z,13.44
2018-04-17T05:22:18.863Z,13.31
2018-04-17T05:22:45.000Z,13.3
2018-04-17T05:23:11.162Z,13.44
2018-04-17T05:23:37.328Z,13.42
2018-04-17T05:24:03.485Z,13.39
2018-04-17T05:24:29.627Z,13.38
2018-04-17T05:24:55.791Z,13.37
2018-04-17T05:25:21.928Z,13.37
2018-04-17T05:25:48.064Z,13.39
2018-04-17T05:26:14.202Z,13.38
2018-04-17T05:26:40.337Z,13.38
2018-04-17T05:27:06.481Z,13.35
2018-04-17T05:27:32.612Z,13.31
2018-04-17T05:27:58.756Z,13.35
2018-04-17T05:28:24.892Z,13.41
2018-04-17T05:28:51.026Z,13.37
2018-04-17T05:29:17.173Z,13.49
2018-04-17T05:29:43.313Z,13.47
2018-04-17T05:30:09.468Z,13.42
2018-04-17T05:30:35.612Z,13.37
2018-04-17T05:31:01.749Z,13.39
2018-04-17T05:31:27.882Z,13.49
2018-04-17T05:31:54.024Z,13.5
2018-04-17T05:32:20.162Z,13.5
2018-04-17T05:32:46.356Z,13.56
2018-04-17T05:33:12.521Z,13.56
2018-04-17T05:33:38.660Z,13.5
2018-04-17T05:34:04.801Z,13.54
2018-04-17T05:34:30.936Z,13.62
2018-04-17T05:34:57.074Z,13.5
2018-04-17T05:35:23.215Z,13.57
2018-04-17T05:35:49.360Z,13.46
2018-04-17T05:36:15.525Z,13.53
2018-04-17T05:36:41.678Z,13.59
2018-04-17T05:37:07.821Z,13.52
2018-04-17T05:37:33.961Z,13.49
2018-04-17T05:38:00.097Z,13.49